Time;durP1;ratioP1;P1;durP2;ratioP2;P2;SDS_P1;SDS_P2;PMS_P1;PMS_P2;Temp;Humidity;BMP_temperature;BMP_pressure;BME280_temperature;BME280_humidity;BME280_pressure;Samples;Min_cycle;Max_cycle;Signal;HPM_P1;HPM_P2
2021/06/25 00:42:26;;;;;;;;;;;;;;;;;;;;;
2021/06/25 05:35:30;;;;;;;;;;;;;;;;;;;;;
2021/06/25 05:45:05;;;;;;;;;;;;;;;;;;;;;
2021/06/25 05:50:29;;;;;;;;;;;;;;;;;;;;;
2021/06/25 06:46:12;;;;;;;;;;;;;;;;;;;;;
2021/06/25 07:53:06;;;;;;;;;29.25;22.50;;;;;;;;5821284;24;47259;-83
2021/06/25 07:55:31;;;;;;;;;24.00;20.75;;;;;;;;6005809;23;47101;-82
2021/06/25 07:57:56;;;;;;;;;26.75;22.75;;;;;;;;6006790;23;47682;-83
2021/06/25 08:20:35;;;;;;;;;;;;;;;;;;;;;
2021/06/25 10:30:09;;;;;;;;;;;;;;;;;;;;;
2021/06/25 10:33:01;;;;;;;;;15.00;12.75;;;;;;;;6403151;22;72237;-82
2021/06/25 10:35:29;;;;;;;;;13.50;13.00;;;;;;;;6216209;22;47018;-82
2021/06/25 10:38:45;;;;;;;;;;;;;;;;;;;;;
2021/06/25 11:45:59;;;;;;;;;;;;;;;;;;;;;
2021/06/25 11:48:57;;;;;;;;;;;;;;;;;;;;;
2021/06/25 11:52:14;;;;;;;;;;;;;;;;;;;;;
2021/06/25 11:58:27;;;;;;;;;;;;;;;;;;;;;
2021/06/25 12:10:28;;;;;;;;;12.75;8.50;;;;;;;;5951328;23;47305;-82
2021/06/25 12:39:03;;;;;;;;;5.75;5.00;;;;;;;;5874932;24;47023;-84
2021/06/25 13:04:34;;;;;;;;;6.00;5.00;;;;;;;;6034905;23;46943;-93
2021/06/25 13:13:19;;;;;;;;;5.25;5.00;;;;;;;;6115008;23;47089;-87
2021/06/25 13:15:49;;;;;;;;;6.75;6.00;;;;;;;;6278916;22;47049;-88
2021/06/25 13:18:17;;;;;;;;;5.25;5.25;;;;;;;;6320543;22;46851;-88
2021/06/25 13:21:02;;;;;;;;;7.00;5.50;;;;;;;;6310999;22;49289;-88
2021/06/25 13:23:27;;;;;;;;;4.00;4.00;;;;;;;;6339778;22;46840;-88
2021/06/25 13:35:51;;;;;;;;;5.00;5.00;;;;;;;;6151411;23;46886;-92
2021/06/25 13:38:20;;;;;;;;;5.75;4.25;;;;;;;;6240049;22;46976;-88
2021/06/25 13:41:11;;;;;;;;;6.25;5.75;;;;;;;;6365899;22;46651;-88
2021/06/25 13:43:37;;;;;;;;;6.25;6.00;;;;;;;;6371164;22;46943;-88
2021/06/25 13:46:07;;;;;;;;;4.75;4.25;;;;;;;;6370727;22;46955;-87
2021/06/25 13:48:33;;;;;;;;;8.50;7.00;;;;;;;;6371385;22;46739;-89
2021/06/25 13:51:02;;;;;;;;;8.75;8.25;;;;;;;;6372029;22;46627;-88
2021/06/25 13:53:28;;;;;;;;;7.00;7.00;;;;;;;;6371349;22;47892;-91
2021/06/25 13:56:46;;;;;;;;;7.25;6.00;;;;;;;;6370280;22;46832;-87
2021/06/25 13:59:13;;;;;;;;;7.00;6.50;;;;;;;;6369456;22;46881;-88
2021/06/25 14:01:46;;;;;;;;;7.00;6.00;;;;;;;;6342594;22;46895;-81
2021/06/25 14:04:18;;;;;;;;;7.00;7.00;;;;;;;;6371097;22;46834;-84
2021/06/25 14:06:57;;;;;;;;;7.00;6.00;;;;;;;;6371407;22;46910;-82
2021/06/25 14:09:24;;;;;;;;;9.50;7.00;;;;;;;;6342461;22;46850;-81
2021/06/25 14:11:50;;;;;;;;;7.50;7.50;;;;;;;;6371410;22;47176;-81
2021/06/25 14:14:16;;;;;;;;;7.75;7.50;;;;;;;;6370662;22;46937;-82
2021/06/25 14:16:42;;;;;;;;;7.00;7.00;;;;;;;;6370561;22;46912;-82
2021/06/25 14:19:12;;;;;;;;;8.00;6.50;;;;;;;;6370840;22;46815;-83
2021/06/25 14:21:39;;;;;;;;;7.75;6.50;;;;;;;;6371348;22;46787;-81
2021/06/25 14:24:05;;;;;;;;;5.50;5.00;;;;;;;;6371110;22;46915;-81
2021/06/25 14:26:31;;;;;;;;;6.50;6.50;;;;;;;;6370406;22;47106;-82
2021/06/25 14:28:58;;;;;;;;;8.25;5.25;;;;;;;;6370043;22;46843;-81
2021/06/25 14:31:24;;;;;;;;;8.50;7.25;;;;;;;;6371289;22;46894;-82
2021/06/25 14:33:49;;;;;;;;;8.00;6.25;;;;;;;;6370662;22;47044;-82
2021/06/25 14:36:15;;;;;;;;;6.50;5.75;;;;;;;;6371890;22;46746;-81
2021/06/25 14:38:41;;;;;;;;;6.00;6.00;;;;;;;;6372133;22;46887;-82
2021/06/25 14:41:07;;;;;;;;;6.75;5.25;;;;;;;;6372404;22;46728;-82
2021/06/25 14:43:32;;;;;;;;;5.75;5.25;;;;;;;;6372074;22;47681;-82
2021/06/25 14:45:58;;;;;;;;;4.25;4.25;;;;;;;;6371480;22;46902;-82
2021/06/25 14:48:23;;;;;;;;;6.50;6.50;;;;;;;;6372458;22;47195;-81
2021/06/25 14:50:50;;;;;;;;;6.00;5.25;;;;;;;;6372919;22;46883;-82
2021/06/25 14:53:15;;;;;;;;;6.00;4.25;;;;;;;;6372603;22;47866;-82
2021/06/25 14:55:41;;;;;;;;;7.75;5.50;;;;;;;;6372677;22;46915;-83
2021/06/25 14:58:08;;;;;;;;;6.25;4.25;;;;;;;;6372315;22;46890;-82
2021/06/25 15:00:34;;;;;;;;;5.25;4.00;;;;;;;;6372249;22;46723;-83
2021/06/25 15:02:59;;;;;;;;;3.50;3.00;;;;;;;;6372284;22;46878;-85
2021/06/25 15:05:25;;;;;;;;;6.75;5.75;;;;;;;;6372181;22;46805;-84
2021/06/25 15:07:51;;;;;;;;;6.25;6.00;;;;;;;;6372443;22;47026;-80
2021/06/25 15:10:16;;;;;;;;;7.00;6.75;;;;;;;;6372231;22;47187;-85
2021/06/25 15:12:42;;;;;;;;;6.00;4.25;;;;;;;;6372169;22;47306;-81
2021/06/25 15:15:07;;;;;;;;;6.50;4.75;;;;;;;;6371898;22;46780;-81
2021/06/25 15:17:36;;;;;;;;;7.00;5.75;;;;;;;;6371759;22;46768;-82
2021/06/25 15:20:02;;;;;;;;;6.00;5.75;;;;;;;;6372005;22;47092;-82
2021/06/25 15:22:28;;;;;;;;;4.25;3.00;;;;;;;;6371750;22;46871;-83
2021/06/25 15:24:59;;;;;;;;;2.00;2.00;;;;;;;;6371488;22;47022;-85
2021/06/25 15:27:24;;;;;;;;;7.00;5.50;;;;;;;;6342967;22;46960;-84
2021/06/25 15:30:13;;;;;;;;;5.50;5.00;;;;;;;;6371123;22;46901;-84
2021/06/25 15:32:39;;;;;;;;;4.25;4.25;;;;;;;;6320288;22;48616;-82
2021/06/25 15:35:05;;;;;;;;;2.50;1.75;;;;;;;;6371850;22;46697;-83
2021/06/25 15:37:31;;;;;;;;;2.00;2.00;;;;;;;;6343278;22;46923;-82
2021/06/25 15:39:56;;;;;;;;;3.00;1.00;;;;;;;;6371889;22;46764;-83
2021/06/25 15:42:57;;;;;;;;;3.00;1.50;;;;;;;;6371793;22;46827;-86
2021/06/25 15:45:23;;;;;;;;;1.50;1.50;;;;;;;;6371381;22;47155;-83
2021/06/25 15:48:06;;;;;;;;;3.50;3.50;;;;;;;;6371955;22;46720;-89
2021/06/25 15:50:31;;;;;;;;;5.75;5.00;;;;;;;;6372065;22;46904;-85
2021/06/25 15:52:56;;;;;;;;;3.50;3.50;;;;;;;;6371850;22;46882;-87
2021/06/25 15:55:22;;;;;;;;;7.00;5.75;;;;;;;;6371886;22;46875;-85
2021/06/25 15:57:50;;;;;;;;;8.75;6.25;;;;;;;;6371459;22;47093;-85
2021/06/25 16:00:40;;;;;;;;;4.00;3.00;;;;;;;;6371391;22;47105;-86
2021/06/25 16:06:39;;;;;;;;;5.00;4.50;;;;;;;;6211105;22;47307;-85
2021/06/25 16:11:46;;;;;;;;;4.00;4.00;;;;;;;;6379003;22;46993;-86
2021/06/25 16:17:19;;;;;;;;;3.25;3.25;;;;;;;;6294760;22;46791;-87
2021/06/25 16:19:45;;;;;;;;;7.25;5.00;;;;;;;;6372504;22;46903;-86
2021/06/25 16:22:11;;;;;;;;;6.25;5.25;;;;;;;;6373103;22;47035;-85
2021/06/25 16:24:36;;;;;;;;;6.00;4.00;;;;;;;;6371485;22;47850;-84
2021/06/25 16:27:02;;;;;;;;;8.75;6.00;;;;;;;;6372029;22;46809;-83
2021/06/25 16:29:27;;;;;;;;;6.75;6.00;;;;;;;;6387611;22;46999;-83
2021/06/25 16:31:53;;;;;;;;;5.25;3.25;;;;;;;;6404536;22;46988;-83
2021/06/25 16:34:18;;;;;;;;;6.00;5.00;;;;;;;;6375102;22;48312;-83
2021/06/25 16:36:43;;;;;;;;;4.00;3.75;;;;;;;;6404525;22;46896;-83
2021/06/25 16:39:10;;;;;;;;;4.00;4.00;;;;;;;;6404313;22;46845;-83
2021/06/25 16:41:35;;;;;;;;;4.00;3.25;;;;;;;;6404219;22;46694;-84
2021/06/25 16:44:01;;;;;;;;;5.25;4.25;;;;;;;;6403682;22;46848;-83
2021/06/25 16:46:26;;;;;;;;;5.00;4.00;;;;;;;;6403995;22;46722;-84
2021/06/25 16:48:52;;;;;;;;;3.25;3.25;;;;;;;;6403993;22;47237;-84
2021/06/25 16:51:17;;;;;;;;;4.00;4.00;;;;;;;;6375755;22;47291;-84
2021/06/25 16:53:43;;;;;;;;;4.00;4.00;;;;;;;;6403996;22;46894;-84
2021/06/25 16:56:08;;;;;;;;;4.50;4.00;;;;;;;;6403317;22;46861;-84
2021/06/25 16:58:33;;;;;;;;;4.00;3.25;;;;;;;;6404231;22;47015;-84
2021/06/25 17:01:00;;;;;;;;;6.00;4.75;;;;;;;;6404157;22;47185;-83
2021/06/25 17:03:26;;;;;;;;;6.00;6.00;;;;;;;;6403763;22;47004;-81
2021/06/25 17:05:51;;;;;;;;;11.25;7.50;;;;;;;;6403760;22;47351;-81
2021/06/25 17:08:16;;;;;;;;;8.00;6.75;;;;;;;;6403796;22;46838;-81
2021/06/25 17:10:42;;;;;;;;;4.25;4.00;;;;;;;;6404148;22;46841;-82
2021/06/25 17:13:08;;;;;;;;;7.00;6.00;;;;;;;;6403932;22;47746;-81
2021/06/25 17:15:38;;;;;;;;;5.00;5.00;;;;;;;;6403635;22;47043;-82
2021/06/25 17:18:04;;;;;;;;;6.75;5.00;;;;;;;;6403572;22;46842;-83
2021/06/25 17:20:29;;;;;;;;;7.00;5.00;;;;;;;;6403653;22;47103;-83
2021/06/25 17:22:55;;;;;;;;;5.00;4.50;;;;;;;;6403981;22;48175;-82
2021/06/25 17:25:20;;;;;;;;;5.00;5.00;;;;;;;;6403859;22;46850;-82
2021/06/25 17:27:46;;;;;;;;;5.00;5.00;;;;;;;;6403851;22;46789;-82
2021/06/25 17:30:11;;;;;;;;;5.00;5.00;;;;;;;;6371855;22;47116;-82
2021/06/25 17:32:38;;;;;;;;;10.25;7.25;;;;;;;;6402895;22;46919;-83
2021/06/25 17:35:03;;;;;;;;;7.25;7.00;;;;;;;;6403170;22;47081;-82
2021/06/25 17:37:29;;;;;;;;;7.00;7.00;;;;;;;;6403418;22;46752;-83
2021/06/25 17:39:57;;;;;;;;;6.00;6.00;;;;;;;;6403385;22;46704;-83
2021/06/25 17:42:22;;;;;;;;;9.50;7.25;;;;;;;;6374448;22;49386;-83
2021/06/25 17:45:08;;;;;;;;;10.00;8.75;;;;;;;;6373535;22;47395;-83
2021/06/25 17:47:41;;;;;;;;;9.50;7.50;;;;;;;;6400908;22;46812;-85
2021/06/25 17:50:07;;;;;;;;;9.00;9.00;;;;;;;;6374371;22;47240;-84
2021/06/25 17:52:33;;;;;;;;;8.00;7.00;;;;;;;;6374276;22;48233;-84
2021/06/25 17:54:58;;;;;;;;;8.00;6.25;;;;;;;;6374059;22;47693;-86
2021/06/25 17:57:24;;;;;;;;;7.25;6.75;;;;;;;;6374130;22;47259;-85
2021/06/25 17:59:49;;;;;;;;;9.00;7.25;;;;;;;;6402769;22;46849;-85
2021/06/25 18:02:15;;;;;;;;;7.00;7.00;;;;;;;;6402895;22;46891;-83
2021/06/25 18:04:40;;;;;;;;;9.50;9.00;;;;;;;;6373368;22;46879;-84
2021/06/25 18:07:06;;;;;;;;;9.75;9.25;;;;;;;;6403340;22;46939;-84
2021/06/25 18:09:41;;;;;;;;;13.00;10.25;;;;;;;;6404472;22;46873;-84
2021/06/25 18:12:07;;;;;;;;;13.50;9.00;;;;;;;;6375270;22;49041;-84
2021/06/25 18:14:35;;;;;;;;;10.75;8.00;;;;;;;;6404120;22;47159;-84
2021/06/25 18:17:01;;;;;;;;;8.00;8.00;;;;;;;;6375446;22;46748;-84
2021/06/25 18:19:26;;;;;;;;;10.25;8.00;;;;;;;;6375666;22;47274;-84
2021/06/25 18:21:57;;;;;;;;;7.75;7.75;;;;;;;;6404165;22;47783;-84
2021/06/25 18:24:22;;;;;;;;;6.50;6.50;;;;;;;;6375137;22;47521;-84
2021/06/25 18:26:48;;;;;;;;;4.25;4.25;;;;;;;;6375467;22;46990;-84
2021/06/25 18:29:14;;;;;;;;;7.50;6.75;;;;;;;;6374677;22;46939;-84
2021/06/25 18:31:39;;;;;;;;;7.00;7.00;;;;;;;;6375652;22;49036;-84
2021/06/25 18:34:05;;;;;;;;;6.25;5.25;;;;;;;;6404252;22;46913;-84
2021/06/25 18:36:30;;;;;;;;;7.50;7.00;;;;;;;;6404408;22;46864;-83
2021/06/25 18:38:56;;;;;;;;;5.25;5.00;;;;;;;;6404082;22;46727;-84
2021/06/25 18:41:24;;;;;;;;;6.00;5.75;;;;;;;;6375509;22;49189;-84
2021/06/25 18:43:51;;;;;;;;;8.00;8.00;;;;;;;;6403941;22;46910;-84
2021/06/25 18:46:18;;;;;;;;;6.00;6.00;;;;;;;;6403885;22;46839;-85
2021/06/25 18:48:43;;;;;;;;;9.50;8.00;;;;;;;;6375652;22;46897;-83
2021/06/25 18:51:09;;;;;;;;;12.50;8.25;;;;;;;;6404166;22;46801;-84
2021/06/25 18:53:35;;;;;;;;;9.00;9.00;;;;;;;;6374918;22;46880;-83
2021/06/25 18:56:01;;;;;;;;;12.50;8.50;;;;;;;;6404277;22;46870;-82
2021/06/25 18:58:26;;;;;;;;;9.00;9.00;;;;;;;;6375029;22;47114;-82
2021/06/25 19:00:53;;;;;;;;;9.00;8.50;;;;;;;;6374939;22;48185;-83
2021/06/25 19:03:18;;;;;;;;;9.25;8.00;;;;;;;;6404250;22;46852;-83
2021/06/25 19:05:44;;;;;;;;;7.25;7.25;;;;;;;;6375699;22;47023;-83
2021/06/25 19:08:10;;;;;;;;;8.50;8.25;;;;;;;;6404374;22;47276;-84
2021/06/25 19:10:35;;;;;;;;;8.00;7.75;;;;;;;;6375217;22;48247;-84
2021/06/25 19:13:00;;;;;;;;;11.00;9.00;;;;;;;;6404170;22;46809;-84
2021/06/25 19:15:26;;;;;;;;;10.75;9.50;;;;;;;;6403847;22;46828;-83
2021/06/25 19:17:52;;;;;;;;;11.25;9.00;;;;;;;;6374946;22;46878;-85
2021/06/25 19:20:19;;;;;;;;;11.75;11.00;;;;;;;;6404599;22;47689;-84
2021/06/25 19:22:44;;;;;;;;;13.00;10.50;;;;;;;;6403977;22;46729;-84
2021/06/25 19:25:11;;;;;;;;;12.00;8.50;;;;;;;;6404083;22;46732;-84
2021/06/25 19:27:37;;;;;;;;;12.25;9.50;;;;;;;;6404622;22;46700;-84
2021/06/25 19:30:04;;;;;;;;;11.00;10.50;;;;;;;;6368766;22;48439;-84
2021/06/25 19:32:30;;;;;;;;;11.25;10.25;;;;;;;;6371719;22;46995;-85
2021/06/25 19:34:55;;;;;;;;;10.50;9.00;;;;;;;;6372226;22;46928;-85
2021/06/25 19:37:21;;;;;;;;;9.75;9.25;;;;;;;;6370439;22;46946;-85
2021/06/25 19:39:46;;;;;;;;;8.75;7.75;;;;;;;;6369450;22;48314;-84
2021/06/25 19:42:12;;;;;;;;;8.50;8.00;;;;;;;;6372025;22;47040;-85
2021/06/25 19:44:37;;;;;;;;;11.00;10.50;;;;;;;;6371325;22;46828;-84
2021/06/25 19:47:05;;;;;;;;;13.25;10.75;;;;;;;;6372421;22;47098;-85
2021/06/25 19:49:31;;;;;;;;;13.00;12.75;;;;;;;;6371671;22;47742;-84
2021/06/25 19:51:57;;;;;;;;;12.50;11.00;;;;;;;;6371873;22;46745;-84
2021/06/25 19:54:22;;;;;;;;;9.00;8.75;;;;;;;;6372493;22;46860;-85
2021/06/25 19:56:50;;;;;;;;;10.00;10.00;;;;;;;;6370005;22;46853;-85
2021/06/25 19:59:15;;;;;;;;;15.00;12.25;;;;;;;;6371447;22;47682;-85
2021/06/25 20:01:41;;;;;;;;;11.25;10.75;;;;;;;;6370048;22;47543;-82
2021/06/25 20:04:06;;;;;;;;;15.50;11.50;;;;;;;;6371835;22;46887;-81
2021/06/25 20:06:32;;;;;;;;;15.25;14.50;;;;;;;;6371958;22;47223;-80
2021/06/25 20:08:57;;;;;;;;;17.50;14.25;;;;;;;;6371636;22;47620;-81
2021/06/25 20:11:32;;;;;;;;;18.75;14.25;;;;;;;;6372151;22;46799;-82
2021/06/25 20:14:14;;;;;;;;;;;;;;;;;;;;;
2021/06/25 20:20:26;;;;;;;;;;;;;;;;;;;;;
2021/06/25 20:23:43;;;;;;;;;;;;;;;;;;;;;
2021/06/25 20:26:00;;;;;;;;;17.75;16.00;;;;;;;;6264993;22;47008;-83
2021/06/25 20:28:34;;;;;;;;;16.25;14.75;;;;;;;;6354837;22;46767;-80
2021/06/25 20:31:01;;;;;;;;;18.50;16.00;;;;;;;;6370605;22;47145;-81
2021/06/25 20:33:26;;;;;;;;;19.00;17.00;;;;;;;;6371310;22;46725;-80
2021/06/25 20:35:53;;;;;;;;;17.00;15.75;;;;;;;;6372049;22;46705;-79
2021/06/25 20:38:18;;;;;;;;;16.50;15.25;;;;;;;;6371795;22;46706;-81
2021/06/25 20:40:44;;;;;;;;;17.50;15.25;;;;;;;;6371473;22;46796;-81
2021/06/25 20:43:09;;;;;;;;;17.50;16.75;;;;;;;;6371838;22;46886;-81
2021/06/25 20:45:35;;;;;;;;;17.00;16.50;;;;;;;;6370711;22;46886;-81
2021/06/25 20:48:00;;;;;;;;;17.50;16.75;;;;;;;;6371656;22;47172;-81
2021/06/25 20:50:25;;;;;;;;;18.25;17.25;;;;;;;;6371387;22;46984;-82
2021/06/25 20:52:51;;;;;;;;;15.25;13.00;;;;;;;;6371425;22;46810;-82
2021/06/25 20:55:16;;;;;;;;;14.00;13.25;;;;;;;;6369173;22;46924;-82
2021/06/25 20:57:42;;;;;;;;;13.75;13.00;;;;;;;;6371603;22;46779;-81
2021/06/25 21:00:09;;;;;;;;;20.00;16.50;;;;;;;;6370589;22;46925;-82
2021/06/25 21:02:34;;;;;;;;;17.50;14.50;;;;;;;;6368738;22;47129;-82
2021/06/25 21:04:59;;;;;;;;;16.00;16.00;;;;;;;;6371623;22;47426;-82
2021/06/25 21:07:25;;;;;;;;;17.25;15.50;;;;;;;;6372008;22;46709;-82
2021/06/25 21:09:52;;;;;;;;;17.00;16.50;;;;;;;;6370392;22;47732;-82
2021/06/25 21:12:18;;;;;;;;;12.00;10.75;;;;;;;;6370701;22;46907;-82
2021/06/25 21:14:45;;;;;;;;;12.75;11.75;;;;;;;;6368634;22;46882;-81
2021/06/25 21:17:11;;;;;;;;;13.25;11.25;;;;;;;;6371880;22;47252;-82
2021/06/25 21:19:36;;;;;;;;;13.00;12.00;;;;;;;;6367932;22;48969;-82
2021/06/25 21:22:02;;;;;;;;;14.50;14.00;;;;;;;;6370782;22;47042;-82
2021/06/25 21:24:27;;;;;;;;;17.75;15.00;;;;;;;;6370180;22;47443;-82
2021/06/25 21:26:52;;;;;;;;;11.25;10.75;;;;;;;;6368078;22;46951;-82
2021/06/25 21:29:18;;;;;;;;;13.75;12.25;;;;;;;;6383750;22;46944;-82
2021/06/25 21:31:43;;;;;;;;;13.50;12.00;;;;;;;;6374151;22;46824;-83
2021/06/25 21:34:08;;;;;;;;;14.50;13.50;;;;;;;;6403591;22;46988;-82
2021/06/25 21:36:34;;;;;;;;;13.75;12.75;;;;;;;;6403169;22;47201;-82
2021/06/25 21:39:00;;;;;;;;;13.50;13.25;;;;;;;;6402805;22;46792;-82
2021/06/25 21:41:25;;;;;;;;;14.25;13.50;;;;;;;;6403381;22;46701;-82
2021/06/25 21:43:51;;;;;;;;;12.00;11.25;;;;;;;;6404653;22;46781;-82
2021/06/25 21:46:16;;;;;;;;;13.75;12.25;;;;;;;;6404767;22;46810;-81
2021/06/25 21:48:42;;;;;;;;;16.25;13.50;;;;;;;;6403636;22;46806;-81
2021/06/25 21:51:07;;;;;;;;;14.50;14.00;;;;;;;;6375627;22;47303;-82
2021/06/25 21:53:33;;;;;;;;;14.25;13.00;;;;;;;;6404754;22;46700;-82
2021/06/25 21:55:59;;;;;;;;;15.00;13.00;;;;;;;;6376034;22;46767;-80
2021/06/25 21:58:28;;;;;;;;;15.00;13.00;;;;;;;;6404693;22;47570;-81
2021/06/25 22:00:54;;;;;;;;;14.25;13.00;;;;;;;;6403537;22;46916;-81
2021/06/25 22:03:20;;;;;;;;;14.75;13.50;;;;;;;;6403991;22;46781;-81
2021/06/25 22:05:46;;;;;;;;;14.75;13.25;;;;;;;;6404394;22;47151;-81
2021/06/25 22:08:12;;;;;;;;;14.50;10.50;;;;;;;;6404211;22;46866;-81
2021/06/25 22:10:37;;;;;;;;;15.75;13.25;;;;;;;;6403742;22;46701;-81
2021/06/25 22:13:03;;;;;;;;;15.50;15.25;;;;;;;;6375351;22;47088;-81
2021/06/25 22:15:29;;;;;;;;;11.50;11.00;;;;;;;;6375177;22;47184;-83
2021/06/25 22:20:57;;;;;;;;;14.00;12.00;;;;;;;;6403544;22;46697;-83
2021/06/25 22:23:23;;;;;;;;;11.25;11.25;;;;;;;;6375934;22;46997;-82
2021/06/25 22:25:57;;;;;;;;;12.75;10.25;;;;;;;;6403940;22;47030;-83
2021/06/25 22:28:43;;;;;;;;;13.00;11.75;;;;;;;;6374540;22;48316;-85
2021/06/25 22:31:08;;;;;;;;;13.75;12.50;;;;;;;;6401899;22;47112;-81
2021/06/25 22:33:34;;;;;;;;;11.00;10.75;;;;;;;;6404147;22;46781;-81
2021/06/25 22:35:59;;;;;;;;;9.75;8.75;;;;;;;;6404321;22;46861;-81
2021/06/25 22:38:24;;;;;;;;;12.00;12.00;;;;;;;;6403620;22;47757;-81
2021/06/25 22:40:50;;;;;;;;;10.50;9.75;;;;;;;;6403570;22;46980;-80
2021/06/25 22:43:15;;;;;;;;;12.00;10.50;;;;;;;;6403486;22;46972;-80
2021/06/25 22:45:40;;;;;;;;;10.50;8.75;;;;;;;;6403871;22;46945;-80
2021/06/25 22:48:06;;;;;;;;;11.00;9.50;;;;;;;;6403682;22;47613;-80
2021/06/25 22:50:32;;;;;;;;;10.25;10.25;;;;;;;;6403836;22;47005;-80
2021/06/25 22:52:57;;;;;;;;;9.00;9.00;;;;;;;;6403923;22;46933;-80
2021/06/25 22:55:23;;;;;;;;;8.25;7.00;;;;;;;;6375486;22;47013;-80
2021/06/25 22:57:48;;;;;;;;;9.00;8.50;;;;;;;;6403787;22;47789;-81
2021/06/25 23:00:13;;;;;;;;;8.75;8.00;;;;;;;;6403521;22;46906;-81
2021/06/25 23:02:39;;;;;;;;;7.75;6.75;;;;;;;;6403733;22;46894;-81
2021/06/25 23:05:05;;;;;;;;;8.50;8.50;;;;;;;;6404233;22;46748;-82
2021/06/25 23:07:32;;;;;;;;;7.00;7.00;;;;;;;;6404020;22;47903;-82
2021/06/25 23:09:58;;;;;;;;;10.75;8.50;;;;;;;;6404107;22;46903;-83
2021/06/25 23:12:23;;;;;;;;;6.25;6.25;;;;;;;;6404460;22;46771;-81
2021/06/25 23:14:48;;;;;;;;;7.75;7.00;;;;;;;;6403351;22;46694;-81
2021/06/25 23:17:14;;;;;;;;;8.75;6.75;;;;;;;;6404220;22;46825;-81
2021/06/25 23:19:39;;;;;;;;;7.00;6.75;;;;;;;;6374816;22;46753;-81
2021/06/25 23:22:04;;;;;;;;;7.00;7.00;;;;;;;;6404220;22;47017;-81
2021/06/25 23:24:30;;;;;;;;;8.00;7.50;;;;;;;;6404678;22;46916;-81
2021/06/25 23:26:55;;;;;;;;;10.00;9.75;;;;;;;;6404081;22;47591;-81
2021/06/25 23:29:21;;;;;;;;;6.00;5.25;;;;;;;;6405618;22;46970;-81
2021/06/25 23:31:46;;;;;;;;;7.00;5.75;;;;;;;;6420694;22;44307;-82
2021/06/25 23:34:11;;;;;;;;;8.75;8.00;;;;;;;;6422947;22;44764;-82
2021/06/25 23:36:37;;;;;;;;;7.00;7.00;;;;;;;;6424442;22;38015;-82
2021/06/25 23:39:03;;;;;;;;;7.50;7.50;;;;;;;;6424539;22;33856;-82
2021/06/25 23:41:28;;;;;;;;;7.00;7.00;;;;;;;;6405785;22;46748;-82
2021/06/25 23:43:54;;;;;;;;;5.75;5.75;;;;;;;;6404257;22;46797;-81
2021/06/25 23:46:19;;;;;;;;;6.00;6.00;;;;;;;;6428621;22;47845;-82
2021/06/25 23:48:44;;;;;;;;;7.75;7.75;;;;;;;;6422104;22;45237;-80
2021/06/25 23:51:10;;;;;;;;;7.25;7.25;;;;;;;;6424731;22;29209;-81
2021/06/25 23:53:35;;;;;;;;;11.00;8.00;;;;;;;;6395005;22;39008;-81
2021/06/25 23:56:00;;;;;;;;;7.75;7.00;;;;;;;;6393643;22;42754;-80
2021/06/25 23:58:26;;;;;;;;;8.50;7.25;;;;;;;;6406131;22;46700;-80
